sensor_id;sensor_type;location;lat;lon;timestamp;temperature;humidity
29413;DHT22;16389;50.126;8.450;2023-02-15T00:00:14;2.20;99.90
29413;DHT22;16389;50.126;8.450;2023-02-15T00:02:40;2.20;99.90
29413;DHT22;16389;50.126;8.450;2023-02-15T00:05:06;2.20;99.90
29413;DHT22;16389;50.126;8.450;2023-02-15T00:07:32;2.20;99.90
29413;DHT22;16389;50.126;8.450;2023-02-15T00:09:58;2.20;99.90
29413;DHT22;16389;50.126;8.450;2023-02-15T00:12:23;2.20;99.90
29413;DHT22;16389;50.126;8.450;2023-02-15T00:14:49;2.20;99.90
29413;DHT22;16389;50.126;8.450;2023-02-15T00:17:15;2.20;99.90
29413;DHT22;16389;50.126;8.450;2023-02-15T00:19:40;2.20;99.90
29413;DHT22;16389;50.126;8.450;2023-02-15T00:22:06;2.20;99.90
29413;DHT22;16389;50.126;8.450;2023-02-15T00:24:32;2.20;99.90
29413;DHT22;16389;50.126;8.450;2023-02-15T00:26:58;2.30;99.90
29413;DHT22;16389;50.126;8.450;2023-02-15T00:29:24;2.20;99.90
29413;DHT22;16389;50.126;8.450;2023-02-15T00:31:50;2.30;99.90
29413;DHT22;16389;50.126;8.450;2023-02-15T00:34:20;2.20;99.90
29413;DHT22;16389;50.126;8.450;2023-02-15T00:36:46;2.20;99.90
29413;DHT22;16389;50.126;8.450;2023-02-15T00:39:12;2.20;99.90
29413;DHT22;16389;50.126;8.450;2023-02-15T00:41:38;2.30;99.90
29413;DHT22;16389;50.126;8.450;2023-02-15T00:44:04;2.30;99.90
29413;DHT22;16389;50.126;8.450;2023-02-15T00:46:30;2.30;99.90
29413;DHT22;16389;50.126;8.450;2023-02-15T00:48:56;2.30;99.90
29413;DHT22;16389;50.126;8.450;2023-02-15T00:51:22;2.30;99.90
29413;DHT22;16389;50.126;8.450;2023-02-15T00:53:48;2.30;99.90
29413;DHT22;16389;50.126;8.450;2023-02-15T00:56:14;2.30;99.90
29413;DHT22;16389;50.126;8.450;2023-02-15T00:58:40;2.30;99.90
29413;DHT22;16389;50.126;8.450;2023-02-15T01:01:18;2.30;99.90
29413;DHT22;16389;50.126;8.450;2023-02-15T01:03:44;2.30;99.90
29413;DHT22;16389;50.126;8.450;2023-02-15T01:06:11;2.30;99.90
29413;DHT22;16389;50.126;8.450;2023-02-15T01:08:37;2.30;99.90
29413;DHT22;16389;50.126;8.450;2023-02-15T01:11:04;2.30;99.90
29413;DHT22;16389;50.126;8.450;2023-02-15T01:13:31;2.30;99.90
29413;DHT22;16389;50.126;8.450;2023-02-15T01:15:57;2.30;99.90
29413;DHT22;16389;50.126;8.450;2023-02-15T01:18:23;2.30;99.90
29413;DHT22;16389;50.126;8.450;2023-02-15T01:20:49;2.30;99.90
29413;DHT22;16389;50.126;8.450;2023-02-15T01:23:14;2.40;99.90
29413;DHT22;16389;50.126;8.450;2023-02-15T01:25:40;2.30;99.90
29413;DHT22;16389;50.126;8.450;2023-02-15T01:28:06;2.30;99.90
29413;DHT22;16389;50.126;8.450;2023-02-15T01:30:32;2.30;99.90
29413;DHT22;16389;50.126;8.450;2023-02-15T01:32:58;2.30;99.90
29413;DHT22;16389;50.126;8.450;2023-02-15T01:35:26;2.30;99.90
29413;DHT22;16389;50.126;8.450;2023-02-15T01:37:52;2.40;99.90
29413;DHT22;16389;50.126;8.450;2023-02-15T01:40:18;2.30;99.90
29413;DHT22;16389;50.126;8.450;2023-02-15T01:42:44;2.40;99.90
29413;DHT22;16389;50.126;8.450;2023-02-15T01:45:30;2.40;99.90
29413;DHT22;16389;50.126;8.450;2023-02-15T01:50:45;2.30;99.90
29413;DHT22;16389;50.126;8.450;2023-02-15T01:53:28;2.30;99.90
29413;DHT22;16389;50.126;8.450;2023-02-15T01:58:21;2.30;99.90
29413;DHT22;16389;50.126;8.450;2023-02-15T02:00:47;2.20;99.90
29413;DHT22;16389;50.126;8.450;2023-02-15T02:03:13;2.20;99.90
29413;DHT22;16389;50.126;8.450;2023-02-15T02:05:40;2.20;99.90
29413;DHT22;16389;50.126;8.450;2023-02-15T02:08:07;2.20;99.90
29413;DHT22;16389;50.126;8.450;2023-02-15T02:10:35;2.20;99.90
29413;DHT22;16389;50.126;8.450;2023-02-15T02:13:04;2.20;99.90
29413;DHT22;16389;50.126;8.450;2023-02-15T02:15:48;2.20;99.90
29413;DHT22;16389;50.126;8.450;2023-02-15T02:18:22;2.20;99.90
29413;DHT22;16389;50.126;8.450;2023-02-15T02:26:56;2.30;99.90
29413;DHT22;16389;50.126;8.450;2023-02-15T02:30:00;2.30;99.90
29413;DHT22;16389;50.126;8.450;2023-02-15T02:38:27;2.20;99.90
29413;DHT22;16389;50.126;8.450;2023-02-15T02:48:58;2.20;99.90
29413;DHT22;16389;50.126;8.450;2023-02-15T02:51:24;2.20;99.90
29413;DHT22;16389;50.126;8.450;2023-02-15T02:54:01;2.30;99.90
29413;DHT22;16389;50.126;8.450;2023-02-15T02:56:40;2.30;99.90
29413;DHT22;16389;50.126;8.450;2023-02-15T02:59:17;2.20;99.90
29413;DHT22;16389;50.126;8.450;2023-02-15T03:01:49;2.20;99.90
29413;DHT22;16389;50.126;8.450;2023-02-15T03:04:25;2.30;99.90
29413;DHT22;16389;50.126;8.450;2023-02-15T03:06:56;2.30;99.90
29413;DHT22;16389;50.126;8.450;2023-02-15T03:09:29;2.20;99.90
29413;DHT22;16389;50.126;8.450;2023-02-15T03:12:22;2.20;99.90
29413;DHT22;16389;50.126;8.450;2023-02-15T03:15:16;2.30;99.90
29413;DHT22;16389;50.126;8.450;2023-02-15T03:17:50;2.20;99.90
29413;DHT22;16389;50.126;8.450;2023-02-15T03:20:30;2.20;99.90
29413;DHT22;16389;50.126;8.450;2023-02-15T03:22:59;2.10;99.90
29413;DHT22;16389;50.126;8.450;2023-02-15T03:28:03;2.10;99.90
29413;DHT22;16389;50.126;8.450;2023-02-15T03:30:31;2.10;99.90
29413;DHT22;16389;50.126;8.450;2023-02-15T03:32:59;2.20;99.90
29413;DHT22;16389;50.126;8.450;2023-02-15T03:35:33;2.20;99.90
29413;DHT22;16389;50.126;8.450;2023-02-15T03:38:01;2.20;99.90
29413;DHT22;16389;50.126;8.450;2023-02-15T03:40:51;2.20;99.90
29413;DHT22;16389;50.126;8.450;2023-02-15T03:43:54;2.20;99.90
29413;DHT22;16389;50.126;8.450;2023-02-15T03:46:39;2.30;99.90
29413;DHT22;16389;50.126;8.450;2023-02-15T03:49:12;2.20;99.90
29413;DHT22;16389;50.126;8.450;2023-02-15T03:51:42;2.30;99.90
29413;DHT22;16389;50.126;8.450;2023-02-15T03:54:13;2.30;99.90
29413;DHT22;16389;50.126;8.450;2023-02-15T03:57:01;2.20;99.90
29413;DHT22;16389;50.126;8.450;2023-02-15T03:59:45;2.20;99.90
29413;DHT22;16389;50.126;8.450;2023-02-15T04:02:38;2.20;99.90
29413;DHT22;16389;50.126;8.450;2023-02-15T04:05:05;2.20;99.90
29413;DHT22;16389;50.126;8.450;2023-02-15T04:07:31;2.20;99.90
29413;DHT22;16389;50.126;8.450;2023-02-15T04:09:56;2.20;99.90
29413;DHT22;16389;50.126;8.450;2023-02-15T04:12:40;2.20;99.90
29413;DHT22;16389;50.126;8.450;2023-02-15T04:15:08;2.20;99.90
29413;DHT22;16389;50.126;8.450;2023-02-15T04:17:52;2.20;99.90
29413;DHT22;16389;50.126;8.450;2023-02-15T04:20:18;2.20;99.90
29413;DHT22;16389;50.126;8.450;2023-02-15T04:23:06;2.20;99.90
29413;DHT22;16389;50.126;8.450;2023-02-15T04:25:50;2.20;99.90
29413;DHT22;16389;50.126;8.450;2023-02-15T04:28:15;2.30;99.90
29413;DHT22;16389;50.126;8.450;2023-02-15T04:30:41;2.20;99.90
29413;DHT22;16389;50.126;8.450;2023-02-15T04:33:07;2.20;99.90
29413;DHT22;16389;50.126;8.450;2023-02-15T04:35:32;2.20;99.90
29413;DHT22;16389;50.126;8.450;2023-02-15T04:37:59;2.20;99.90
29413;DHT22;16389;50.126;8.450;2023-02-15T04:40:24;2.20;99.90
29413;DHT22;16389;50.126;8.450;2023-02-15T04:42:50;2.20;99.90
29413;DHT22;16389;50.126;8.450;2023-02-15T04:45:16;2.20;99.90
29413;DHT22;16389;50.126;8.450;2023-02-15T04:47:42;2.10;99.90
29413;DHT22;16389;50.126;8.450;2023-02-15T04:50:08;2.10;99.90
29413;DHT22;16389;50.126;8.450;2023-02-15T04:52:34;2.10;99.90
29413;DHT22;16389;50.126;8.450;2023-02-15T04:55:00;2.20;99.90
29413;DHT22;16389;50.126;8.450;2023-02-15T04:57:25;2.30;99.90
29413;DHT22;16389;50.126;8.450;2023-02-15T04:59:51;2.20;99.90
29413;DHT22;16389;50.126;8.450;2023-02-15T05:02:17;2.20;99.90
29413;DHT22;16389;50.126;8.450;2023-02-15T05:04:42;2.20;99.90
29413;DHT22;16389;50.126;8.450;2023-02-15T05:07:08;2.20;99.90
29413;DHT22;16389;50.126;8.450;2023-02-15T05:09:34;2.10;99.90
29413;DHT22;16389;50.126;8.450;2023-02-15T05:11:59;2.20;99.90
29413;DHT22;16389;50.126;8.450;2023-02-15T05:14:25;2.20;99.90
29413;DHT22;16389;50.126;8.450;2023-02-15T05:16:50;2.20;99.90
29413;DHT22;16389;50.126;8.450;2023-02-15T05:19:16;2.20;99.90
29413;DHT22;16389;50.126;8.450;2023-02-15T05:21:42;2.30;99.90
29413;DHT22;16389;50.126;8.450;2023-02-15T05:24:07;2.30;99.90
29413;DHT22;16389;50.126;8.450;2023-02-15T05:26:52;2.30;99.90
29413;DHT22;16389;50.126;8.450;2023-02-15T05:29:36;2.20;99.90
29413;DHT22;16389;50.126;8.450;2023-02-15T05:32:01;2.20;99.90
29413;DHT22;16389;50.126;8.450;2023-02-15T05:34:27;2.20;99.90
29413;DHT22;16389;50.126;8.450;2023-02-15T05:36:53;2.20;99.90
29413;DHT22;16389;50.126;8.450;2023-02-15T05:39:19;2.20;99.90
29413;DHT22;16389;50.126;8.450;2023-02-15T05:41:44;2.00;99.90
29413;DHT22;16389;50.126;8.450;2023-02-15T05:44:10;1.90;99.90
29413;DHT22;16389;50.126;8.450;2023-02-15T05:46:35;1.90;99.90
29413;DHT22;16389;50.126;8.450;2023-02-15T05:49:01;1.90;99.90
29413;DHT22;16389;50.126;8.450;2023-02-15T05:51:27;2.00;99.90
29413;DHT22;16389;50.126;8.450;2023-02-15T05:53:52;2.00;99.90
29413;DHT22;16389;50.126;8.450;2023-02-15T05:56:18;2.00;99.90
29413;DHT22;16389;50.126;8.450;2023-02-15T05:58:43;2.00;99.90
29413;DHT22;16389;50.126;8.450;2023-02-15T06:01:17;2.00;99.90
29413;DHT22;16389;50.126;8.450;2023-02-15T06:03:44;2.10;99.90
29413;DHT22;16389;50.126;8.450;2023-02-15T06:06:10;2.10;99.90
29413;DHT22;16389;50.126;8.450;2023-02-15T06:08:37;2.20;99.90
29413;DHT22;16389;50.126;8.450;2023-02-15T06:11:03;2.10;99.90
29413;DHT22;16389;50.126;8.450;2023-02-15T06:13:29;2.10;99.90
29413;DHT22;16389;50.126;8.450;2023-02-15T06:15:55;2.10;99.90
29413;DHT22;16389;50.126;8.450;2023-02-15T06:18:21;2.00;99.90
29413;DHT22;16389;50.126;8.450;2023-02-15T06:20:47;2.00;99.90
29413;DHT22;16389;50.126;8.450;2023-02-15T06:23:13;2.00;99.90
29413;DHT22;16389;50.126;8.450;2023-02-15T06:25:38;2.00;99.90
29413;DHT22;16389;50.126;8.450;2023-02-15T06:28:04;2.00;99.90
29413;DHT22;16389;50.126;8.450;2023-02-15T06:30:30;2.10;99.90
29413;DHT22;16389;50.126;8.450;2023-02-15T06:32:55;2.10;99.90
29413;DHT22;16389;50.126;8.450;2023-02-15T06:35:21;2.10;99.90
29413;DHT22;16389;50.126;8.450;2023-02-15T06:37:47;2.10;99.90
29413;DHT22;16389;50.126;8.450;2023-02-15T06:40:13;2.20;99.90
29413;DHT22;16389;50.126;8.450;2023-02-15T06:42:39;2.20;99.90
29413;DHT22;16389;50.126;8.450;2023-02-15T06:45:06;2.10;99.90
29413;DHT22;16389;50.126;8.450;2023-02-15T06:47:32;2.20;99.90
29413;DHT22;16389;50.126;8.450;2023-02-15T06:49:58;2.10;99.90
29413;DHT22;16389;50.126;8.450;2023-02-15T06:52:23;2.10;99.90
29413;DHT22;16389;50.126;8.450;2023-02-15T06:54:49;2.10;99.90
29413;DHT22;16389;50.126;8.450;2023-02-15T06:57:15;2.10;99.90
29413;DHT22;16389;50.126;8.450;2023-02-15T06:59:40;2.00;99.90
29413;DHT22;16389;50.126;8.450;2023-02-15T07:02:06;2.00;99.90
29413;DHT22;16389;50.126;8.450;2023-02-15T07:04:33;2.00;99.90
29413;DHT22;16389;50.126;8.450;2023-02-15T07:06:59;2.00;99.90
29413;DHT22;16389;50.126;8.450;2023-02-15T07:09:24;1.90;99.90
29413;DHT22;16389;50.126;8.450;2023-02-15T07:11:50;1.90;99.90
29413;DHT22;16389;50.126;8.450;2023-02-15T07:14:34;1.90;99.90
29413;DHT22;16389;50.126;8.450;2023-02-15T07:17:00;1.90;99.90
29413;DHT22;16389;50.126;8.450;2023-02-15T07:19:25;1.80;99.90
29413;DHT22;16389;50.126;8.450;2023-02-15T07:21:51;1.80;99.90
29413;DHT22;16389;50.126;8.450;2023-02-15T07:24:17;1.80;99.90
29413;DHT22;16389;50.126;8.450;2023-02-15T07:26:42;1.80;99.90
29413;DHT22;16389;50.126;8.450;2023-02-15T07:29:08;1.90;99.90
29413;DHT22;16389;50.126;8.450;2023-02-15T07:31:34;1.90;99.90
29413;DHT22;16389;50.126;8.450;2023-02-15T07:34:00;2.00;99.90
29413;DHT22;16389;50.126;8.450;2023-02-15T07:36:25;2.00;99.90
29413;DHT22;16389;50.126;8.450;2023-02-15T07:38:51;2.00;99.90
29413;DHT22;16389;50.126;8.450;2023-02-15T07:41:17;2.00;99.90
29413;DHT22;16389;50.126;8.450;2023-02-15T07:43:44;2.00;99.90
29413;DHT22;16389;50.126;8.450;2023-02-15T07:46:12;2.00;99.90
29413;DHT22;16389;50.126;8.450;2023-02-15T07:48:39;1.90;99.90
29413;DHT22;16389;50.126;8.450;2023-02-15T07:51:07;2.00;99.90
29413;DHT22;16389;50.126;8.450;2023-02-15T07:53:33;2.00;99.90
29413;DHT22;16389;50.126;8.450;2023-02-15T07:56:04;2.00;99.90
29413;DHT22;16389;50.126;8.450;2023-02-15T07:58:31;1.80;99.90
29413;DHT22;16389;50.126;8.450;2023-02-15T08:01:20;1.80;99.90
29413;DHT22;16389;50.126;8.450;2023-02-15T08:03:46;1.90;99.90
29413;DHT22;16389;50.126;8.450;2023-02-15T08:06:12;1.90;99.90
29413;DHT22;16389;50.126;8.450;2023-02-15T08:08:39;2.00;99.90
29413;DHT22;16389;50.126;8.450;2023-02-15T08:11:22;2.00;99.90
29413;DHT22;16389;50.126;8.450;2023-02-15T08:13:56;2.00;99.90
29413;DHT22;16389;50.126;8.450;2023-02-15T08:18:59;1.90;99.90
29413;DHT22;16389;50.126;8.450;2023-02-15T08:21:27;1.90;99.90
29413;DHT22;16389;50.126;8.450;2023-02-15T08:23:53;1.80;99.90
29413;DHT22;16389;50.126;8.450;2023-02-15T08:26:20;1.80;99.90
29413;DHT22;16389;50.126;8.450;2023-02-15T08:28:45;1.80;99.90
29413;DHT22;16389;50.126;8.450;2023-02-15T08:31:12;2.00;99.90
29413;DHT22;16389;50.126;8.450;2023-02-15T08:33:40;1.90;99.90
29413;DHT22;16389;50.126;8.450;2023-02-15T08:36:12;1.90;99.90
29413;DHT22;16389;50.126;8.450;2023-02-15T08:38:39;1.90;99.90
29413;DHT22;16389;50.126;8.450;2023-02-15T08:41:15;2.00;99.90
29413;DHT22;16389;50.126;8.450;2023-02-15T08:43:42;2.00;99.90
29413;DHT22;16389;50.126;8.450;2023-02-15T08:46:08;1.90;99.90
29413;DHT22;16389;50.126;8.450;2023-02-15T08:48:34;2.00;99.90
29413;DHT22;16389;50.126;8.450;2023-02-15T08:51:05;2.00;99.90
29413;DHT22;16389;50.126;8.450;2023-02-15T08:53:31;2.00;99.90
29413;DHT22;16389;50.126;8.450;2023-02-15T08:55:58;1.90;99.90
29413;DHT22;16389;50.126;8.450;2023-02-15T08:58:24;1.80;99.90
29413;DHT22;16389;50.126;8.450;2023-02-15T09:00:50;1.70;99.90
29413;DHT22;16389;50.126;8.450;2023-02-15T09:03:16;1.80;99.90
29413;DHT22;16389;50.126;8.450;2023-02-15T09:05:41;1.80;99.90
29413;DHT22;16389;50.126;8.450;2023-02-15T09:08:07;1.80;99.90
29413;DHT22;16389;50.126;8.450;2023-02-15T09:10:33;1.80;99.90
29413;DHT22;16389;50.126;8.450;2023-02-15T09:12:58;1.90;99.90
29413;DHT22;16389;50.126;8.450;2023-02-15T09:15:24;2.00;99.90
29413;DHT22;16389;50.126;8.450;2023-02-15T09:17:49;2.00;99.90
29413;DHT22;16389;50.126;8.450;2023-02-15T09:20:15;2.00;99.90
29413;DHT22;16389;50.126;8.450;2023-02-15T09:22:41;2.10;99.90
29413;DHT22;16389;50.126;8.450;2023-02-15T09:25:07;2.00;99.90
29413;DHT22;16389;50.126;8.450;2023-02-15T09:27:32;2.00;99.90
29413;DHT22;16389;50.126;8.450;2023-02-15T09:29:58;2.10;99.90
29413;DHT22;16389;50.126;8.450;2023-02-15T09:32:23;2.20;99.90
29413;DHT22;16389;50.126;8.450;2023-02-15T09:34:49;2.20;99.90
29413;DHT22;16389;50.126;8.450;2023-02-15T09:37:14;2.30;99.90
29413;DHT22;16389;50.126;8.450;2023-02-15T09:39:42;2.20;99.90
29413;DHT22;16389;50.126;8.450;2023-02-15T09:47:49;2.20;99.90
29413;DHT22;16389;50.126;8.450;2023-02-15T09:50:31;2.30;99.90
29413;DHT22;16389;50.126;8.450;2023-02-15T10:04:50;2.20;99.90
29413;DHT22;16389;50.126;8.450;2023-02-15T10:13:08;2.30;99.90
29413;DHT22;16389;50.126;8.450;2023-02-15T10:15:48;2.30;99.90
29413;DHT22;16389;50.126;8.450;2023-02-15T10:22:28;2.40;99.90
29413;DHT22;16389;50.126;8.450;2023-02-15T10:27:15;2.50;99.90
29413;DHT22;16389;50.126;8.450;2023-02-15T10:30:02;2.60;99.90
29413;DHT22;16389;50.126;8.450;2023-02-15T10:32:38;2.70;99.90
29413;DHT22;16389;50.126;8.450;2023-02-15T10:35:11;2.60;99.90
29413;DHT22;16389;50.126;8.450;2023-02-15T10:41:50;2.60;99.90
29413;DHT22;16389;50.126;8.450;2023-02-15T10:43:49;2.40;99.90
29413;DHT22;16389;50.126;8.450;2023-02-15T10:52:06;2.30;99.90
29413;DHT22;16389;50.126;8.450;2023-02-15T11:00:07;2.30;99.90
29413;DHT22;16389;50.126;8.450;2023-02-15T11:05:51;2.50;99.90
29413;DHT22;16389;50.126;8.450;2023-02-15T11:08:21;2.60;99.90
29413;DHT22;16389;50.126;8.450;2023-02-15T11:10:52;2.70;99.90
29413;DHT22;16389;50.126;8.450;2023-02-15T11:13:21;2.70;99.90
29413;DHT22;16389;50.126;8.450;2023-02-15T11:21:02;2.60;99.90
29413;DHT22;16389;50.126;8.450;2023-02-15T11:23:29;2.60;99.90
29413;DHT22;16389;50.126;8.450;2023-02-15T11:26:10;2.50;99.90
29413;DHT22;16389;50.126;8.450;2023-02-15T11:28:43;2.70;99.90
29413;DHT22;16389;50.126;8.450;2023-02-15T11:31:17;2.80;99.90
29413;DHT22;16389;50.126;8.450;2023-02-15T11:33:47;3.00;99.90
29413;DHT22;16389;50.126;8.450;2023-02-15T11:36:21;3.00;99.90
29413;DHT22;16389;50.126;8.450;2023-02-15T11:38:50;3.00;99.90
29413;DHT22;16389;50.126;8.450;2023-02-15T11:41:21;2.90;99.90
29413;DHT22;16389;50.126;8.450;2023-02-15T11:43:57;2.90;99.90
29413;DHT22;16389;50.126;8.450;2023-02-15T11:46:23;2.80;99.90
29413;DHT22;16389;50.126;8.450;2023-02-15T11:48:49;2.90;99.90
29413;DHT22;16389;50.126;8.450;2023-02-15T11:51:17;3.00;99.90
29413;DHT22;16389;50.126;8.450;2023-02-15T11:53:45;3.10;99.90
29413;DHT22;16389;50.126;8.450;2023-02-15T11:56:21;3.20;99.90
29413;DHT22;16389;50.126;8.450;2023-02-15T11:58:53;3.10;99.90
29413;DHT22;16389;50.126;8.450;2023-02-15T12:01:35;3.10;99.90
29413;DHT22;16389;50.126;8.450;2023-02-15T12:04:16;3.10;99.90
29413;DHT22;16389;50.126;8.450;2023-02-15T12:09:50;3.20;99.90
29413;DHT22;16389;50.126;8.450;2023-02-15T12:14:58;3.10;99.90
29413;DHT22;16389;50.126;8.450;2023-02-15T12:17:27;3.00;99.90
29413;DHT22;16389;50.126;8.450;2023-02-15T12:19:56;3.10;99.90
29413;DHT22;16389;50.126;8.450;2023-02-15T12:22:29;3.10;99.90
29413;DHT22;16389;50.126;8.450;2023-02-15T12:25:01;3.20;99.90
29413;DHT22;16389;50.126;8.450;2023-02-15T12:27:33;3.20;99.90
29413;DHT22;16389;50.126;8.450;2023-02-15T12:30:04;3.20;99.90
29413;DHT22;16389;50.126;8.450;2023-02-15T12:33:33;3.30;99.90
29413;DHT22;16389;50.126;8.450;2023-02-15T12:35:34;3.20;99.90
29413;DHT22;16389;50.126;8.450;2023-02-15T12:38:09;3.20;99.90
29413;DHT22;16389;50.126;8.450;2023-02-15T12:41:00;3.10;99.90
29413;DHT22;16389;50.126;8.450;2023-02-15T12:45:53;3.10;99.90
29413;DHT22;16389;50.126;8.450;2023-02-15T12:48:20;3.20;99.90
29413;DHT22;16389;50.126;8.450;2023-02-15T12:50:50;3.20;99.90
29413;DHT22;16389;50.126;8.450;2023-02-15T12:53:20;3.20;99.90
29413;DHT22;16389;50.126;8.450;2023-02-15T12:58:26;3.40;99.90
29413;DHT22;16389;50.126;8.450;2023-02-15T13:01:12;3.30;99.90
29413;DHT22;16389;50.126;8.450;2023-02-15T13:06:20;3.30;99.90
29413;DHT22;16389;50.126;8.450;2023-02-15T13:08:49;3.30;99.90
29413;DHT22;16389;50.126;8.450;2023-02-15T13:11:23;3.20;99.90
29413;DHT22;16389;50.126;8.450;2023-02-15T13:13:58;3.10;99.90
29413;DHT22;16389;50.126;8.450;2023-02-15T13:16:37;3.30;99.90
29413;DHT22;16389;50.126;8.450;2023-02-15T13:19:18;3.40;99.90
29413;DHT22;16389;50.126;8.450;2023-02-15T13:21:47;3.50;99.90
29413;DHT22;16389;50.126;8.450;2023-02-15T13:24:25;3.60;99.90
29413;DHT22;16389;50.126;8.450;2023-02-15T13:26:54;3.50;99.90
29413;DHT22;16389;50.126;8.450;2023-02-15T13:29:34;3.50;99.90
29413;DHT22;16389;50.126;8.450;2023-02-15T13:32:43;3.60;99.90
29413;DHT22;16389;50.126;8.450;2023-02-15T13:34:50;3.60;99.90
29413;DHT22;16389;50.126;8.450;2023-02-15T13:37:22;3.60;99.90
29413;DHT22;16389;50.126;8.450;2023-02-15T13:40:02;3.60;99.90
29413;DHT22;16389;50.126;8.450;2023-02-15T13:42:36;3.60;99.90
29413;DHT22;16389;50.126;8.450;2023-02-15T13:45:21;3.60;99.90
29413;DHT22;16389;50.126;8.450;2023-02-15T13:48:06;3.70;99.90
29413;DHT22;16389;50.126;8.450;2023-02-15T13:53:52;3.70;99.90
29413;DHT22;16389;50.126;8.450;2023-02-15T14:04:53;3.40;99.90
29413;DHT22;16389;50.126;8.450;2023-02-15T14:07:43;3.30;99.90
29413;DHT22;16389;50.126;8.450;2023-02-15T14:10:27;3.20;99.90
29413;DHT22;16389;50.126;8.450;2023-02-15T14:18:35;3.20;99.90
29413;DHT22;16389;50.126;8.450;2023-02-15T14:23:52;3.40;99.90
29413;DHT22;16389;50.126;8.450;2023-02-15T14:26:23;3.30;99.90
29413;DHT22;16389;50.126;8.450;2023-02-15T14:29:20;3.30;99.90
29413;DHT22;16389;50.126;8.450;2023-02-15T14:31:53;3.30;99.90
29413;DHT22;16389;50.126;8.450;2023-02-15T14:34:31;3.30;99.90
29413;DHT22;16389;50.126;8.450;2023-02-15T14:37:01;3.20;99.90
29413;DHT22;16389;50.126;8.450;2023-02-15T14:47:36;3.30;99.90
29413;DHT22;16389;50.126;8.450;2023-02-15T14:56:25;3.20;99.90
29413;DHT22;16389;50.126;8.450;2023-02-15T15:01:25;3.10;99.90
29413;DHT22;16389;50.126;8.450;2023-02-15T15:03:54;3.00;99.90
29413;DHT22;16389;50.126;8.450;2023-02-15T15:06:29;3.00;99.90
29413;DHT22;16389;50.126;8.450;2023-02-15T15:09:00;3.00;99.90
29413;DHT22;16389;50.126;8.450;2023-02-15T15:11:42;3.00;99.90
29413;DHT22;16389;50.126;8.450;2023-02-15T15:14:10;3.00;99.90
29413;DHT22;16389;50.126;8.450;2023-02-15T15:19:04;2.90;99.90
29413;DHT22;16389;50.126;8.450;2023-02-15T15:44:11;2.90;99.90
29413;DHT22;16389;50.126;8.450;2023-02-15T15:49:41;2.80;99.90
29413;DHT22;16389;50.126;8.450;2023-02-15T15:52:26;2.80;99.90
29413;DHT22;16389;50.126;8.450;2023-02-15T15:55:02;2.70;99.90
29413;DHT22;16389;50.126;8.450;2023-02-15T15:57:39;2.70;99.90
29413;DHT22;16389;50.126;8.450;2023-02-15T16:00:38;2.70;99.90
29413;DHT22;16389;50.126;8.450;2023-02-15T16:03:20;2.80;99.90
29413;DHT22;16389;50.126;8.450;2023-02-15T16:05:46;2.60;99.90
29413;DHT22;16389;50.126;8.450;2023-02-15T16:08:13;2.70;99.90
29413;DHT22;16389;50.126;8.450;2023-02-15T16:10:41;2.70;99.90
29413;DHT22;16389;50.126;8.450;2023-02-15T16:13:06;2.80;99.90
29413;DHT22;16389;50.126;8.450;2023-02-15T16:15:42;2.80;99.90
29413;DHT22;16389;50.126;8.450;2023-02-15T16:18:14;2.80;99.90
29413;DHT22;16389;50.126;8.450;2023-02-15T16:20:41;2.70;99.90
29413;DHT22;16389;50.126;8.450;2023-02-15T16:23:16;2.70;99.90
29413;DHT22;16389;50.126;8.450;2023-02-15T16:28:32;2.70;99.90
29413;DHT22;16389;50.126;8.450;2023-02-15T16:31:12;2.60;99.90
29413;DHT22;16389;50.126;8.450;2023-02-15T16:33:39;2.60;99.90
29413;DHT22;16389;50.126;8.450;2023-02-15T16:36:10;2.60;99.90
29413;DHT22;16389;50.126;8.450;2023-02-15T16:38:52;2.60;99.90
29413;DHT22;16389;50.126;8.450;2023-02-15T16:41:29;2.60;99.90
29413;DHT22;16389;50.126;8.450;2023-02-15T16:44:06;2.60;99.90
29413;DHT22;16389;50.126;8.450;2023-02-15T16:46:40;2.60;99.90
29413;DHT22;16389;50.126;8.450;2023-02-15T16:49:19;2.60;99.90
29413;DHT22;16389;50.126;8.450;2023-02-15T16:51:56;2.60;99.90
29413;DHT22;16389;50.126;8.450;2023-02-15T16:54:24;2.70;99.90
29413;DHT22;16389;50.126;8.450;2023-02-15T16:56:51;2.70;99.90
29413;DHT22;16389;50.126;8.450;2023-02-15T16:59:37;2.60;99.90
29413;DHT22;16389;50.126;8.450;2023-02-15T17:04:42;2.70;99.90
29413;DHT22;16389;50.126;8.450;2023-02-15T17:07:19;2.70;99.90
29413;DHT22;16389;50.126;8.450;2023-02-15T17:09:55;2.60;99.90
29413;DHT22;16389;50.126;8.450;2023-02-15T17:12:43;2.60;99.90
29413;DHT22;16389;50.126;8.450;2023-02-15T17:15:40;2.60;99.90
29413;DHT22;16389;50.126;8.450;2023-02-15T17:18:12;2.60;99.90
29413;DHT22;16389;50.126;8.450;2023-02-15T17:20:41;2.60;99.90
29413;DHT22;16389;50.126;8.450;2023-02-15T17:23:34;2.50;99.90
29413;DHT22;16389;50.126;8.450;2023-02-15T17:26:10;2.60;99.90
29413;DHT22;16389;50.126;8.450;2023-02-15T17:28:37;2.60;99.90
29413;DHT22;16389;50.126;8.450;2023-02-15T17:31:06;2.60;99.90
29413;DHT22;16389;50.126;8.450;2023-02-15T17:38:59;2.60;99.90
29413;DHT22;16389;50.126;8.450;2023-02-15T17:41:30;2.60;99.90
29413;DHT22;16389;50.126;8.450;2023-02-15T17:43:56;2.70;99.90
29413;DHT22;16389;50.126;8.450;2023-02-15T17:46:23;2.70;99.90
29413;DHT22;16389;50.126;8.450;2023-02-15T17:48:51;2.70;99.90
29413;DHT22;16389;50.126;8.450;2023-02-15T17:51:18;2.70;99.90
29413;DHT22;16389;50.126;8.450;2023-02-15T17:53:45;2.70;99.90
29413;DHT22;16389;50.126;8.450;2023-02-15T17:56:30;2.70;99.90
29413;DHT22;16389;50.126;8.450;2023-02-15T17:58:56;2.70;99.90
29413;DHT22;16389;50.126;8.450;2023-02-15T18:01:21;2.60;99.90
29413;DHT22;16389;50.126;8.450;2023-02-15T18:04:11;2.70;99.90
29413;DHT22;16389;50.126;8.450;2023-02-15T18:06:56;2.60;99.90
29413;DHT22;16389;50.126;8.450;2023-02-15T18:09:40;2.60;99.90
29413;DHT22;16389;50.126;8.450;2023-02-15T18:12:27;2.60;99.90
29413;DHT22;16389;50.126;8.450;2023-02-15T18:14:55;2.70;99.90
29413;DHT22;16389;50.126;8.450;2023-02-15T18:17:28;2.70;99.90
29413;DHT22;16389;50.126;8.450;2023-02-15T18:19:54;2.70;99.90
29413;DHT22;16389;50.126;8.450;2023-02-15T18:22:20;2.60;99.90
29413;DHT22;16389;50.126;8.450;2023-02-15T18:24:47;2.70;99.90
29413;DHT22;16389;50.126;8.450;2023-02-15T18:27:14;2.70;99.90
29413;DHT22;16389;50.126;8.450;2023-02-15T18:29:40;2.70;99.90
29413;DHT22;16389;50.126;8.450;2023-02-15T18:32:12;2.70;99.90
29413;DHT22;16389;50.126;8.450;2023-02-15T18:34:40;2.60;99.90
29413;DHT22;16389;50.126;8.450;2023-02-15T18:37:13;2.60;99.90
29413;DHT22;16389;50.126;8.450;2023-02-15T18:39:46;2.50;99.90
29413;DHT22;16389;50.126;8.450;2023-02-15T18:42:23;2.60;99.90
29413;DHT22;16389;50.126;8.450;2023-02-15T18:44:55;2.50;99.90
29413;DHT22;16389;50.126;8.450;2023-02-15T18:47:21;2.50;99.90
29413;DHT22;16389;50.126;8.450;2023-02-15T18:49:47;2.50;99.90
29413;DHT22;16389;50.126;8.450;2023-02-15T18:52:20;2.50;99.90
29413;DHT22;16389;50.126;8.450;2023-02-15T18:54:50;2.50;99.90
29413;DHT22;16389;50.126;8.450;2023-02-15T18:57:16;2.50;99.90
29413;DHT22;16389;50.126;8.450;2023-02-15T18:59:42;2.60;99.90